createdAt,value
2023-02-04T00:00:14.178Z,13.27
2023-02-04T00:02:41.702Z,14.70
2023-02-04T00:05:09.485Z,15.52
2023-02-04T00:07:36.442Z,18.00
2023-02-04T00:10:04.412Z,17.60
2023-02-04T00:12:31.130Z,17.60
2023-02-04T00:14:57.872Z,18.95
2023-02-04T00:17:24.641Z,19.08
2023-02-04T00:19:51.318Z,20.65
2023-02-04T00:22:18.115Z,28.42
2023-02-04T00:24:48.535Z,20.92
2023-02-04T00:27:15.586Z,21.23
2023-02-04T00:29:42.339Z,21.52
2023-02-04T00:32:09.118Z,21.40
2023-02-04T00:34:35.869Z,22.98
2023-02-04T00:37:02.578Z,29.08
2023-02-04T00:39:29.837Z,24.98
2023-02-04T00:41:56.527Z,33.90
2023-02-04T00:44:23.199Z,20.90
2023-02-04T00:46:49.906Z,25.55
2023-02-04T00:49:16.606Z,25.85
2023-02-04T00:51:46.750Z,43.17
2023-02-04T00:54:15.820Z,23.83
2023-02-04T00:56:43.867Z,27.05
2023-02-04T00:59:10.844Z,36.38
2023-02-04T01:01:37.865Z,19.23
2023-02-04T01:04:05.035Z,32.50
2023-02-04T01:06:31.702Z,30.67
2023-02-04T01:08:58.404Z,45.35
2023-02-04T01:11:25.573Z,37.67
2023-02-04T01:13:52.252Z,18.83
2023-02-04T01:16:19.200Z,35.83
2023-02-04T01:18:46.052Z,19.60
2023-02-04T01:21:12.781Z,23.20
2023-02-04T01:23:39.516Z,20.05
2023-02-04T01:26:06.294Z,22.70
2023-02-04T01:28:33.183Z,41.22
2023-02-04T01:30:59.990Z,16.63
2023-02-04T01:33:26.777Z,19.73
2023-02-04T01:35:53.496Z,17.88
2023-02-04T01:38:20.401Z,18.88
2023-02-04T01:40:47.854Z,24.40
2023-02-04T01:43:14.641Z,23.20
2023-02-04T01:45:41.336Z,18.67
2023-02-04T01:48:09.135Z,16.98
2023-02-04T01:50:35.982Z,24.15
2023-02-04T01:53:02.860Z,34.70
2023-02-04T01:55:31.919Z,45.00
2023-02-04T01:57:59.074Z,38.05
2023-02-04T02:00:31.371Z,33.35
2023-02-04T02:02:59.647Z,34.65
2023-02-04T02:05:37.702Z,19.70
2023-02-04T02:08:05.626Z,43.60
2023-02-04T02:10:33.087Z,43.40
2023-02-04T02:12:59.989Z,16.88
2023-02-04T02:15:27.085Z,26.00
2023-02-04T02:17:54.960Z,60.33
2023-02-04T02:20:23.589Z,50.65
2023-02-04T02:22:58.127Z,50.33
2023-02-04T02:25:24.804Z,62.08
2023-02-04T02:27:51.707Z,41.50
2023-02-04T02:30:19.852Z,52.33
2023-02-04T02:32:47.836Z,46.47
2023-02-04T02:35:15.217Z,44.45
2023-02-04T02:37:42.146Z,66.00
2023-02-04T02:40:09.776Z,31.55
2023-02-04T02:42:36.965Z,46.90
2023-02-04T02:45:21.048Z,61.10
2023-02-04T02:47:47.940Z,39.30
2023-02-04T02:50:17.214Z,28.00
2023-02-04T02:52:44.040Z,24.08
2023-02-04T02:55:16.984Z,21.65
2023-02-04T02:57:46.478Z,33.42
2023-02-04T03:00:23.038Z,17.33
2023-02-04T03:03:00.293Z,4.28
2023-02-04T03:05:28.991Z,4.53
2023-02-04T03:07:55.785Z,4.80
2023-02-04T03:10:22.527Z,6.03
2023-02-04T03:12:49.377Z,6.68
2023-02-04T03:15:16.478Z,8.48
2023-02-04T03:17:43.923Z,16.67
2023-02-04T03:20:11.344Z,25.52
2023-02-04T03:22:38.175Z,38.17
2023-02-04T03:25:05.200Z,40.20
2023-02-04T03:27:32.119Z,43.00
2023-02-04T03:29:59.137Z,45.90
2023-02-04T03:32:26.010Z,43.25
2023-02-04T03:34:52.700Z,47.45
2023-02-04T03:37:19.366Z,24.02
2023-02-04T03:39:46.001Z,45.33
2023-02-04T03:42:12.671Z,42.80
2023-02-04T03:44:39.372Z,28.85
2023-02-04T03:47:06.033Z,63.40
2023-02-04T03:49:32.764Z,38.63
2023-02-04T03:51:59.421Z,39.30
2023-02-04T03:54:26.205Z,31.23
2023-02-04T03:56:52.904Z,42.10
2023-02-04T03:59:19.603Z,22.73
2023-02-04T04:01:46.340Z,20.67
2023-02-04T04:04:13.221Z,22.13
2023-02-04T04:06:39.913Z,22.67
2023-02-04T04:09:06.579Z,24.55
2023-02-04T04:11:33.318Z,29.23
2023-02-04T04:14:01.312Z,31.55
2023-02-04T04:16:28.451Z,20.35
2023-02-04T04:18:55.995Z,13.30
2023-02-04T04:21:22.720Z,24.50
2023-02-04T04:23:49.483Z,15.35
2023-02-04T04:26:17.303Z,19.13
2023-02-04T04:28:44.020Z,25.63
2023-02-04T04:31:10.811Z,22.27
2023-02-04T04:33:38.661Z,21.23
2023-02-04T04:36:06.639Z,37.03
2023-02-04T04:38:33.494Z,14.15
2023-02-04T04:41:00.225Z,24.48
2023-02-04T04:43:27.195Z,14.32
2023-02-04T04:45:53.881Z,5.57
2023-02-04T04:48:21.503Z,4.93
2023-02-04T04:50:48.169Z,4.97
2023-02-04T04:53:14.859Z,6.07
2023-02-04T04:55:41.617Z,6.20
2023-02-04T04:58:08.792Z,6.00
2023-02-04T05:00:35.592Z,7.15
2023-02-04T05:03:02.310Z,7.25
2023-02-04T05:05:29.097Z,8.57
2023-02-04T05:07:55.811Z,8.88
2023-02-04T05:10:22.597Z,11.88
2023-02-04T05:12:49.378Z,9.50
2023-02-04T05:15:16.247Z,9.98
2023-02-04T05:17:42.952Z,10.40
2023-02-04T05:20:10.152Z,24.95
2023-02-04T05:22:36.839Z,22.13
2023-02-04T05:25:04.130Z,13.75
2023-02-04T05:27:30.833Z,12.63
2023-02-04T05:29:57.505Z,10.90
2023-02-04T05:32:24.212Z,10.38
2023-02-04T05:34:50.900Z,13.63
2023-02-04T05:37:19.042Z,13.57
2023-02-04T05:39:45.771Z,14.20
2023-02-04T05:42:12.466Z,14.60
2023-02-04T05:44:39.167Z,12.60
2023-02-04T05:47:05.874Z,12.40
2023-02-04T05:49:32.560Z,12.00
2023-02-04T05:51:59.244Z,11.77
2023-02-04T05:54:26.068Z,12.93
2023-02-04T05:56:52.771Z,12.80
2023-02-04T05:59:19.456Z,15.43
2023-02-04T06:01:46.138Z,14.02
2023-02-04T06:04:12.894Z,13.02
2023-02-04T06:06:39.532Z,12.57
2023-02-04T06:09:06.199Z,13.55
2023-02-04T06:11:32.859Z,13.88
2023-02-04T06:13:59.743Z,12.45
2023-02-04T06:16:26.807Z,13.13
2023-02-04T06:18:53.466Z,12.95
2023-02-04T06:21:20.171Z,11.27
2023-02-04T06:23:46.857Z,11.73
2023-02-04T06:26:13.522Z,11.10
2023-02-04T06:28:40.172Z,10.30
2023-02-04T06:31:09.003Z,11.27
2023-02-04T06:33:37.144Z,11.20
2023-02-04T06:36:04.793Z,9.05
2023-02-04T06:38:31.464Z,9.70
2023-02-04T06:40:58.116Z,10.43
2023-02-04T06:43:25.515Z,9.40
2023-02-04T06:45:52.474Z,10.35
2023-02-04T06:48:19.261Z,11.40
2023-02-04T06:50:45.982Z,14.25
2023-02-04T06:53:12.634Z,11.88
2023-02-04T06:55:39.400Z,11.70
2023-02-04T06:58:06.111Z,12.35
2023-02-04T07:00:33.843Z,12.10
2023-02-04T07:03:00.710Z,10.77
2023-02-04T07:05:27.433Z,12.15
2023-02-04T07:07:54.102Z,13.27
2023-02-04T07:10:23.490Z,13.68
2023-02-04T07:12:50.147Z,11.68
2023-02-04T07:15:17.028Z,10.90
2023-02-04T07:17:43.735Z,11.63
2023-02-04T07:20:11.003Z,18.42
2023-02-04T07:22:37.763Z,15.77
2023-02-04T07:25:04.717Z,18.73
2023-02-04T07:27:31.604Z,13.52
2023-02-04T07:29:58.315Z,15.35
2023-02-04T07:32:25.000Z,11.23
2023-02-04T07:34:51.625Z,13.30
2023-02-04T07:37:20.210Z,12.77
2023-02-04T07:39:47.030Z,11.40
2023-02-04T07:42:13.681Z,18.48
2023-02-04T07:44:40.296Z,12.10
2023-02-04T07:47:06.952Z,12.80
2023-02-04T07:49:33.647Z,11.95
2023-02-04T07:52:00.398Z,13.05
2023-02-04T07:54:27.113Z,14.07
2023-02-04T07:56:53.811Z,12.88
2023-02-04T07:59:20.526Z,11.25
2023-02-04T08:01:48.064Z,15.38
2023-02-04T08:04:14.769Z,22.52
2023-02-04T08:06:41.410Z,16.83
2023-02-04T08:09:08.083Z,15.95
2023-02-04T08:11:34.734Z,18.05
2023-02-04T08:14:01.376Z,18.83
2023-02-04T08:16:28.327Z,14.93
2023-02-04T08:18:55.058Z,15.50
2023-02-04T08:21:21.677Z,15.80
2023-02-04T08:23:48.329Z,14.23
2023-02-04T08:26:14.981Z,15.00
2023-02-04T08:28:41.616Z,13.48
2023-02-04T08:31:11.929Z,14.00
2023-02-04T08:33:39.796Z,14.23
2023-02-04T08:36:07.514Z,13.73
2023-02-04T08:38:34.464Z,12.90
2023-02-04T08:41:01.483Z,13.77
2023-02-04T08:43:28.385Z,13.25
2023-02-04T08:45:55.030Z,15.20
2023-02-04T08:48:21.657Z,13.90
2023-02-04T08:50:48.327Z,13.65
2023-02-04T08:53:14.995Z,12.18
2023-02-04T08:55:41.656Z,13.48
2023-02-04T08:58:08.304Z,12.45
2023-02-04T09:00:35.386Z,11.20
2023-02-04T09:03:02.291Z,10.48
2023-02-04T09:05:28.919Z,11.32
2023-02-04T09:07:55.572Z,9.75
2023-02-04T09:10:22.311Z,11.52
2023-02-04T09:12:49.092Z,11.55
2023-02-04T09:15:15.758Z,11.85
2023-02-04T09:17:43.843Z,10.10
2023-02-04T09:20:11.325Z,9.82
2023-02-04T09:22:38.030Z,11.40
2023-02-04T09:25:05.094Z,11.95
2023-02-04T09:27:31.748Z,10.68
2023-02-04T09:29:58.404Z,11.30
2023-02-04T09:32:25.075Z,13.35
2023-02-04T09:34:51.853Z,12.82
2023-02-04T09:37:18.508Z,17.67
2023-02-04T09:39:45.173Z,13.05
2023-02-04T09:42:14.491Z,11.35
2023-02-04T09:44:41.227Z,9.25
2023-02-04T09:47:11.478Z,10.25
2023-02-04T09:49:38.176Z,11.23
2023-02-04T09:52:05.036Z,12.07
2023-02-04T09:54:31.706Z,10.85
2023-02-04T09:56:59.481Z,11.50
2023-02-04T09:59:27.758Z,11.57
2023-02-04T10:02:04.948Z,12.30
2023-02-04T10:04:31.618Z,14.85
2023-02-04T10:07:01.180Z,14.38
2023-02-04T10:09:28.059Z,11.93
2023-02-04T10:11:54.752Z,10.68
2023-02-04T10:14:23.149Z,8.10
2023-02-04T10:16:58.615Z,9.00
2023-02-04T10:19:26.962Z,8.40
2023-02-04T10:21:53.665Z,8.93
2023-02-04T10:24:26.433Z,9.00
2023-02-04T10:26:53.783Z,9.20
2023-02-04T10:29:25.055Z,9.35
2023-02-04T10:31:52.347Z,9.30
2023-02-04T10:34:20.675Z,8.70
2023-02-04T10:36:53.200Z,8.15
2023-02-04T10:39:22.159Z,8.38
2023-02-04T10:41:52.543Z,9.32
2023-02-04T10:44:28.519Z,8.50
2023-02-04T10:47:01.933Z,10.13
2023-02-04T10:49:28.690Z,8.60
2023-02-04T10:51:57.135Z,8.23
2023-02-04T10:54:36.329Z,8.90
2023-02-04T10:57:24.742Z,10.63
2023-02-04T10:59:53.699Z,9.18
2023-02-04T11:02:51.506Z,9.63
2023-02-04T11:05:21.467Z,8.60
2023-02-04T11:07:49.606Z,9.50
2023-02-04T11:10:21.286Z,9.25
2023-02-04T11:12:53.986Z,10.35
2023-02-04T11:15:45.528Z,10.35
2023-02-04T11:18:26.517Z,9.82
2023-02-04T11:20:58.779Z,11.30
2023-02-04T11:23:29.808Z,14.52
2023-02-04T11:26:33.494Z,7.80
2023-02-04T11:29:00.367Z,6.78
2023-02-04T11:31:27.153Z,5.88
2023-02-04T11:34:15.067Z,6.47
2023-02-04T11:37:02.805Z,6.25
2023-02-04T11:39:37.418Z,6.70
2023-02-04T11:42:05.994Z,7.55
2023-02-04T11:44:33.789Z,6.70
2023-02-04T11:47:01.694Z,6.10
2023-02-04T11:49:28.661Z,5.75
2023-02-04T11:52:13.333Z,5.72
2023-02-04T11:54:40.103Z,7.20
2023-02-04T11:57:06.788Z,6.60
2023-02-04T11:59:33.513Z,5.55
2023-02-04T12:02:18.167Z,5.72
2023-02-04T12:04:56.552Z,6.28
2023-02-04T12:07:28.621Z,6.43
2023-02-04T12:09:56.443Z,7.53
2023-02-04T12:12:25.113Z,6.22
2023-02-04T12:15:04.505Z,4.93
2023-02-04T12:17:31.236Z,4.90
2023-02-04T12:19:57.914Z,3.83
2023-02-04T12:22:24.598Z,4.30
2023-02-04T12:24:52.344Z,4.35
2023-02-04T12:27:19.409Z,2.88
2023-02-04T12:29:46.198Z,3.80
2023-02-04T12:32:12.854Z,3.35
2023-02-04T12:34:39.581Z,3.67
2023-02-04T12:37:06.227Z,5.88
2023-02-04T12:39:33.067Z,6.13
2023-02-04T12:41:59.788Z,4.85
2023-02-04T12:44:27.011Z,10.63
2023-02-04T12:46:55.082Z,9.52
2023-02-04T12:49:24.260Z,8.57
2023-02-04T12:51:52.339Z,8.95
2023-02-04T12:54:19.113Z,8.35
2023-02-04T12:56:46.016Z,5.10
2023-02-04T12:59:12.646Z,4.65
2023-02-04T13:01:39.357Z,4.97
2023-02-04T13:04:06.043Z,5.60
2023-02-04T13:06:32.815Z,5.30
2023-02-04T13:08:59.477Z,4.82
2023-02-04T13:11:26.271Z,4.88
2023-02-04T13:13:52.957Z,4.13
2023-02-04T13:16:22.927Z,3.30
2023-02-04T13:18:50.018Z,3.65
2023-02-04T13:21:17.330Z,5.00
2023-02-04T13:23:44.093Z,4.43
2023-02-04T13:26:11.637Z,5.03
2023-02-04T13:28:38.685Z,5.30
2023-02-04T13:31:06.130Z,5.03
2023-02-04T13:33:33.200Z,5.68
2023-02-04T13:35:59.966Z,5.63
2023-02-04T13:38:26.885Z,5.75
2023-02-04T13:40:53.603Z,5.40
2023-02-04T13:43:20.574Z,4.57
2023-02-04T13:45:48.841Z,4.88
2023-02-04T13:48:16.553Z,4.50
2023-02-04T13:50:43.232Z,4.30
2023-02-04T13:53:10.020Z,4.40
2023-02-04T13:55:36.789Z,4.00
2023-02-04T13:58:03.421Z,4.38
2023-02-04T14:00:30.257Z,3.95
2023-02-04T14:02:57.509Z,6.28
2023-02-04T14:05:24.273Z,4.57
2023-02-04T14:07:51.073Z,3.85
2023-02-04T14:10:18.640Z,4.82
2023-02-04T14:12:45.458Z,3.80
2023-02-04T14:15:12.155Z,4.65
2023-02-04T14:17:38.952Z,4.13
2023-02-04T14:20:06.074Z,4.78
2023-02-04T14:22:32.747Z,3.78
2023-02-04T14:24:59.374Z,4.38
2023-02-04T14:27:26.117Z,3.88
2023-02-04T14:29:52.965Z,4.18
2023-02-04T14:32:20.892Z,4.55
2023-02-04T14:34:48.513Z,4.10
2023-02-04T14:37:15.180Z,4.25
2023-02-04T14:39:41.943Z,4.90
2023-02-04T14:42:08.636Z,4.43
2023-02-04T14:44:35.340Z,4.40
2023-02-04T14:47:02.225Z,4.72
2023-02-04T14:49:28.973Z,6.25
2023-02-04T14:51:56.850Z,5.07
2023-02-04T14:54:23.934Z,5.60
2023-02-04T14:56:50.682Z,5.03
2023-02-04T14:59:17.526Z,4.68
2023-02-04T15:01:46.180Z,4.20
2023-02-04T15:04:13.013Z,4.03
2023-02-04T15:06:40.706Z,6.03
2023-02-04T15:09:07.385Z,4.68
2023-02-04T15:11:34.675Z,4.32
2023-02-04T15:14:01.424Z,5.95
2023-02-04T15:16:28.106Z,5.97
2023-02-04T15:18:54.991Z,4.68
2023-02-04T15:21:21.905Z,4.47
2023-02-04T15:23:57.845Z,4.72
2023-02-04T15:26:25.053Z,4.80
2023-02-04T15:28:51.739Z,4.57
2023-02-04T15:31:18.501Z,4.20
2023-02-04T15:33:45.378Z,4.20
2023-02-04T15:36:12.087Z,4.05
2023-02-04T15:38:38.928Z,3.97
2023-02-04T15:41:05.706Z,4.40
2023-02-04T15:43:32.404Z,7.20
2023-02-04T15:45:59.193Z,4.78
2023-02-04T15:48:27.473Z,4.35
2023-02-04T15:50:54.884Z,4.97
2023-02-04T15:53:22.101Z,3.78
2023-02-04T15:55:49.182Z,4.45
2023-02-04T15:58:16.127Z,4.60
2023-02-04T16:00:43.151Z,4.68
2023-02-04T16:03:11.230Z,5.05
2023-02-04T16:05:37.861Z,4.75
2023-02-04T16:08:04.697Z,5.03
2023-02-04T16:10:31.607Z,5.28
2023-02-04T16:12:58.776Z,4.82
2023-02-04T16:15:25.535Z,5.80
2023-02-04T16:17:54.833Z,4.43
2023-02-04T16:20:21.505Z,4.55
2023-02-04T16:22:48.218Z,4.65
2023-02-04T16:25:14.987Z,4.07
2023-02-04T16:27:42.028Z,3.60
2023-02-04T16:30:09.626Z,4.35
2023-02-04T16:32:37.027Z,4.30
2023-02-04T16:35:04.463Z,5.15
2023-02-04T16:37:31.789Z,6.22
2023-02-04T16:39:58.537Z,5.10
2023-02-04T16:42:25.171Z,4.75
2023-02-04T16:44:51.941Z,3.85
2023-02-04T16:47:18.600Z,3.35
2023-02-04T16:49:45.857Z,3.05
2023-02-04T16:52:12.504Z,3.00
2023-02-04T16:54:39.328Z,3.42
2023-02-04T16:57:06.069Z,3.20
2023-02-04T16:59:33.133Z,3.70
2023-02-04T17:02:00.654Z,3.60
2023-02-04T17:04:27.841Z,3.78
2023-02-04T17:06:54.849Z,2.63
2023-02-04T17:09:21.741Z,3.33
2023-02-04T17:11:48.597Z,3.20
2023-02-04T17:14:16.070Z,3.30
2023-02-04T17:16:43.930Z,2.83
2023-02-04T17:19:11.397Z,3.28
2023-02-04T17:21:41.364Z,3.03
2023-02-04T17:24:08.884Z,3.53
2023-02-04T17:26:39.689Z,3.03
2023-02-04T17:29:14.458Z,3.20
2023-02-04T17:34:10.612Z,3.03
2023-02-04T17:36:37.350Z,2.88
2023-02-04T17:39:04.336Z,2.95
2023-02-04T17:41:31.284Z,2.45
2023-02-04T17:43:59.007Z,3.13
2023-02-04T17:46:25.797Z,2.95
2023-02-04T17:48:53.121Z,2.70
2023-02-04T17:51:20.051Z,2.97
2023-02-04T17:53:46.721Z,3.20
2023-02-04T17:56:14.576Z,3.38
2023-02-04T17:58:42.228Z,2.72
2023-02-04T18:01:16.015Z,2.50
2023-02-04T18:03:44.031Z,2.40
2023-02-04T18:06:14.207Z,3.20
2023-02-04T18:08:40.887Z,2.72
2023-02-04T18:11:16.409Z,2.67
2023-02-04T18:13:43.356Z,2.50
2023-02-04T18:16:20.879Z,3.08
2023-02-04T18:18:47.660Z,2.80
2023-02-04T18:21:25.064Z,2.72
2023-02-04T18:24:07.219Z,2.95
2023-02-04T18:26:34.195Z,2.83
2023-02-04T18:29:01.066Z,2.75
2023-02-04T18:31:52.577Z,2.42
2023-02-04T18:34:28.799Z,2.53
2023-02-04T18:36:55.577Z,2.83
2023-02-04T18:39:28.610Z,3.30
2023-02-04T18:41:55.892Z,3.40
2023-02-04T18:44:32.764Z,3.10
2023-02-04T18:47:01.257Z,3.45
2023-02-04T18:49:29.812Z,3.25
2023-02-04T18:51:57.800Z,3.50
2023-02-04T18:54:36.023Z,3.15
2023-02-04T18:57:17.412Z,3.22
2023-02-04T18:59:44.193Z,3.17
2023-02-04T19:02:35.192Z,4.50
2023-02-04T19:05:13.119Z,3.08
2023-02-04T19:07:40.528Z,3.80
2023-02-04T19:10:30.627Z,3.80
2023-02-04T19:13:19.438Z,3.35
2023-02-04T19:15:58.522Z,3.25
2023-02-04T19:18:37.501Z,3.55
2023-02-04T19:21:23.309Z,3.40
2023-02-04T19:24:20.007Z,3.65
2023-02-04T19:27:23.097Z,3.65
2023-02-04T19:29:50.007Z,4.30
2023-02-04T19:32:57.450Z,3.63
2023-02-04T19:35:29.004Z,3.35
2023-02-04T19:38:03.215Z,3.42
2023-02-04T19:40:35.312Z,3.58
2023-02-04T19:43:08.220Z,3.35
2023-02-04T19:45:35.123Z,4.18
2023-02-04T19:48:01.944Z,3.60
2023-02-04T19:50:37.791Z,3.65
2023-02-04T19:53:20.670Z,3.22
2023-02-04T19:55:52.024Z,3.50
2023-02-04T19:58:28.528Z,3.13
2023-02-04T20:01:03.644Z,4.13
2023-02-04T20:03:40.712Z,3.55
2023-02-04T20:06:17.805Z,3.63
2023-02-04T20:09:02.495Z,4.10
2023-02-04T20:11:35.030Z,4.45
2023-02-04T20:14:18.514Z,3.88
2023-02-04T20:17:03.368Z,3.92
2023-02-04T20:19:30.046Z,3.70
2023-02-04T20:22:22.045Z,3.70
2023-02-04T20:24:54.229Z,3.97
2023-02-04T20:27:41.595Z,3.65
2023-02-04T20:30:08.944Z,4.03
2023-02-04T20:32:42.686Z,3.80
2023-02-04T20:35:09.307Z,3.95
2023-02-04T20:37:36.214Z,3.38
2023-02-04T20:40:19.907Z,3.80
2023-02-04T20:42:54.099Z,3.63
2023-02-04T20:45:28.424Z,3.10
2023-02-04T20:48:17.059Z,3.70
2023-02-04T20:50:51.952Z,3.33
2023-02-04T20:53:37.548Z,3.00
2023-02-04T20:56:14.637Z,3.38
2023-02-04T20:58:46.081Z,3.60
2023-02-04T21:01:25.783Z,3.40
2023-02-04T21:03:52.536Z,3.05
2023-02-04T21:06:25.208Z,3.85
2023-02-04T21:08:53.997Z,2.85
2023-02-04T21:11:21.809Z,4.07
2023-02-04T21:13:49.521Z,2.95
2023-02-04T21:16:16.478Z,3.42
2023-02-04T21:18:43.273Z,3.53
2023-02-04T21:21:10.533Z,3.00
2023-02-04T21:23:37.701Z,3.58
2023-02-04T21:26:05.471Z,3.20
2023-02-04T21:28:32.464Z,3.25
2023-02-04T21:31:00.143Z,3.10
2023-02-04T21:33:27.060Z,2.75
2023-02-04T21:35:53.738Z,3.05
2023-02-04T21:38:20.381Z,3.28
2023-02-04T21:40:47.056Z,2.75
2023-02-04T21:43:13.720Z,2.70
2023-02-04T21:45:40.423Z,3.15
2023-02-04T21:48:07.943Z,3.15
2023-02-04T21:50:35.156Z,2.85
2023-02-04T21:53:01.948Z,3.35
2023-02-04T21:55:29.021Z,3.13
2023-02-04T21:57:56.016Z,3.50
2023-02-04T22:00:23.865Z,4.72
2023-02-04T22:02:51.790Z,3.33
2023-02-04T22:05:19.210Z,3.42
2023-02-04T22:07:45.944Z,3.17
2023-02-04T22:10:15.692Z,3.38
2023-02-04T22:12:42.389Z,4.00
2023-02-04T22:15:09.287Z,3.60
2023-02-04T22:17:35.936Z,4.28
2023-02-04T22:20:02.706Z,3.95
2023-02-04T22:22:29.346Z,3.92
2023-02-04T22:24:56.026Z,3.95
2023-02-04T22:27:22.905Z,3.85
2023-02-04T22:29:49.671Z,3.70
2023-02-04T22:32:16.456Z,3.92
2023-02-04T22:34:43.106Z,3.92
2023-02-04T22:37:10.037Z,4.30
2023-02-04T22:39:36.692Z,3.97
2023-02-04T22:42:03.477Z,3.90
2023-02-04T22:44:30.156Z,4.03
2023-02-04T22:46:56.901Z,3.85
2023-02-04T22:49:23.644Z,3.95
2023-02-04T22:51:50.414Z,3.60
2023-02-04T22:54:17.087Z,3.88
2023-02-04T22:56:43.745Z,4.13
2023-02-04T22:59:10.389Z,3.95
2023-02-04T23:01:37.099Z,3.63
2023-02-04T23:04:03.838Z,3.97
2023-02-04T23:06:30.510Z,4.28
2023-02-04T23:08:57.206Z,3.80
2023-02-04T23:11:24.782Z,3.67
2023-02-04T23:13:51.552Z,3.60
2023-02-04T23:16:19.225Z,4.20
2023-02-04T23:18:46.555Z,4.07
2023-02-04T23:21:14.177Z,4.43
2023-02-04T23:23:41.300Z,3.83
2023-02-04T23:26:08.217Z,3.75
2023-02-04T23:28:34.846Z,3.70
2023-02-04T23:31:01.601Z,3.72
2023-02-04T23:33:28.300Z,4.38
2023-02-04T23:35:55.171Z,3.67
2023-02-04T23:38:21.917Z,4.07
2023-02-04T23:40:48.686Z,3.38
2023-02-04T23:43:15.443Z,3.67
2023-02-04T23:45:42.956Z,3.45
2023-02-04T23:48:09.661Z,3.65
2023-02-04T23:50:36.287Z,3.40
2023-02-04T23:53:02.967Z,3.42
2023-02-04T23:55:29.628Z,3.40
2023-02-04T23:57:56.309Z,3.45
